createdAt,value
2022-12-13T00:00:27.934Z,45.45
2022-12-13T00:03:13.825Z,48.60
2022-12-13T00:05:59.878Z,44.50
2022-12-13T00:08:45.797Z,46.95
2022-12-13T00:11:32.076Z,47.65
2022-12-13T00:14:18.990Z,49.35
2022-12-13T00:17:05.435Z,49.63
2022-12-13T00:19:51.545Z,45.42
2022-12-13T00:22:37.867Z,53.78
2022-12-13T00:25:24.179Z,53.33
2022-12-13T00:28:10.381Z,51.60
2022-12-13T00:31:19.817Z,50.10
2022-12-13T00:34:06.189Z,47.38
2022-12-13T00:36:54.719Z,54.40
2022-12-13T00:39:41.492Z,50.10
2022-12-13T00:42:27.699Z,51.28
2022-12-13T00:45:13.970Z,47.67
2022-12-13T00:48:00.710Z,51.33
2022-12-13T00:50:46.855Z,46.63
2022-12-13T00:53:32.906Z,48.80
2022-12-13T00:56:23.640Z,47.17
2022-12-13T00:59:13.854Z,50.33
2022-12-13T01:01:59.945Z,45.65
2022-12-13T01:04:45.954Z,47.53
2022-12-13T01:07:31.854Z,47.92
2022-12-13T01:10:17.657Z,42.13
2022-12-13T01:13:03.815Z,49.47
2022-12-13T01:15:49.619Z,48.15
2022-12-13T01:18:36.246Z,43.03
2022-12-13T01:21:22.539Z,41.97
2022-12-13T01:24:10.964Z,41.97
2022-12-13T01:26:57.801Z,30.45
2022-12-13T01:29:44.347Z,35.10
2022-12-13T01:32:30.251Z,34.85
2022-12-13T01:35:16.880Z,45.50
2022-12-13T01:38:03.247Z,43.42
2022-12-13T01:41:02.807Z,42.30
2022-12-13T01:44:06.257Z,38.55
2022-12-13T01:46:52.112Z,39.33
2022-12-13T01:49:38.368Z,43.42
2022-12-13T01:52:25.859Z,44.33
2022-12-13T01:55:13.068Z,39.63
2022-12-13T01:58:02.486Z,42.75
2022-12-13T02:00:48.874Z,38.38
2022-12-13T02:03:35.202Z,37.83
2022-12-13T02:06:33.420Z,37.30
2022-12-13T02:09:20.749Z,43.30
2022-12-13T02:12:07.481Z,41.78
2022-12-13T02:14:53.973Z,45.63
2022-12-13T02:18:04.301Z,39.72
2022-12-13T02:21:18.004Z,40.17
2022-12-13T02:24:24.193Z,40.65
2022-12-13T02:27:30.182Z,41.60
2022-12-13T02:30:30.590Z,38.90
2022-12-13T02:33:22.910Z,38.90
2022-12-13T02:36:11.868Z,39.40
2022-12-13T02:39:14.708Z,38.20
2022-12-13T02:42:08.136Z,37.30
2022-12-13T02:45:20.091Z,35.10
2022-12-13T02:48:08.482Z,33.58
2022-12-13T02:50:56.281Z,34.83
2022-12-13T02:53:43.326Z,36.47
2022-12-13T02:56:31.841Z,37.63
2022-12-13T02:59:17.925Z,34.05
2022-12-13T03:02:21.621Z,32.35
2022-12-13T03:05:47.688Z,33.92
2022-12-13T03:09:07.798Z,35.08
2022-12-13T03:12:33.569Z,36.75
2022-12-13T03:15:41.560Z,33.90
2022-12-13T03:18:28.484Z,38.92
2022-12-13T03:21:14.864Z,36.15
2022-12-13T03:24:01.612Z,37.83
2022-12-13T03:26:48.958Z,34.20
2022-12-13T03:29:34.953Z,37.03
2022-12-13T03:32:20.758Z,36.72
2022-12-13T03:35:21.919Z,35.55
2022-12-13T03:38:09.280Z,35.72
2022-12-13T03:40:58.379Z,36.80
2022-12-13T03:43:44.968Z,34.20
2022-12-13T03:46:31.211Z,36.67
2022-12-13T03:49:17.751Z,36.83
2022-12-13T03:52:03.639Z,35.58
2022-12-13T03:54:49.779Z,34.00
2022-12-13T03:57:35.796Z,38.08
2022-12-13T04:00:21.833Z,36.00
2022-12-13T04:03:08.292Z,35.20
2022-12-13T04:05:54.335Z,36.60
2022-12-13T04:08:40.730Z,39.17
2022-12-13T04:11:44.911Z,39.35
2022-12-13T04:14:31.044Z,43.65
2022-12-13T04:17:17.026Z,37.95
2022-12-13T04:20:03.083Z,36.90
2022-12-13T04:22:48.898Z,35.08
2022-12-13T04:25:34.833Z,37.20
2022-12-13T04:28:22.322Z,34.53
2022-12-13T04:31:08.926Z,36.42
2022-12-13T04:33:54.918Z,35.85
2022-12-13T04:36:41.881Z,33.58
2022-12-13T04:39:27.661Z,38.20
2022-12-13T04:42:20.509Z,34.90
2022-12-13T04:45:06.994Z,38.80
2022-12-13T04:47:53.001Z,37.72
2022-12-13T04:50:38.783Z,37.75
2022-12-13T04:53:24.777Z,35.45
2022-12-13T04:56:10.614Z,38.10
2022-12-13T04:58:56.569Z,33.97
2022-12-13T05:01:42.420Z,38.50
2022-12-13T05:04:32.647Z,37.55
2022-12-13T05:07:18.911Z,36.88
2022-12-13T05:10:05.823Z,42.05
2022-12-13T05:12:51.707Z,33.90
2022-12-13T05:15:37.609Z,35.13
2022-12-13T05:18:23.802Z,37.95
2022-12-13T05:21:11.543Z,37.25
2022-12-13T05:23:57.734Z,35.70
2022-12-13T05:26:43.674Z,35.17
2022-12-13T05:29:29.545Z,41.72
2022-12-13T05:32:15.738Z,37.13
2022-12-13T05:35:01.712Z,40.30
2022-12-13T05:37:47.811Z,40.42
2022-12-13T05:40:40.936Z,38.20
2022-12-13T05:43:42.810Z,40.53
2022-12-13T05:46:29.592Z,40.67
2022-12-13T05:49:15.585Z,35.40
2022-12-13T05:52:01.379Z,35.58
2022-12-13T05:54:47.583Z,37.42
2022-12-13T05:57:34.029Z,39.60
2022-12-13T06:00:30.068Z,40.90
2022-12-13T06:03:17.278Z,44.80
2022-12-13T06:06:04.564Z,35.72
2022-12-13T06:08:50.617Z,35.97
2022-12-13T06:11:36.653Z,40.05
2022-12-13T06:14:29.890Z,36.88
2022-12-13T06:17:16.011Z,37.67
2022-12-13T06:20:24.368Z,38.05
2022-12-13T06:23:10.968Z,36.50
2022-12-13T06:25:57.049Z,35.60
2022-12-13T06:28:47.315Z,39.65
2022-12-13T06:31:33.320Z,36.33
2022-12-13T06:34:19.085Z,40.90
2022-12-13T06:37:07.242Z,33.80
2022-12-13T06:39:53.364Z,31.15
2022-12-13T06:42:39.229Z,33.65
2022-12-13T06:45:25.785Z,35.53
2022-12-13T06:48:15.177Z,34.33
2022-12-13T06:51:05.728Z,28.02
2022-12-13T06:53:51.814Z,29.75
2022-12-13T06:56:37.667Z,27.35
2022-12-13T06:59:23.686Z,29.13
2022-12-13T07:02:24.192Z,29.70
2022-12-13T07:05:11.773Z,25.80
2022-12-13T07:07:57.727Z,26.90
2022-12-13T07:10:43.591Z,29.67
2022-12-13T07:13:31.170Z,30.05
2022-12-13T07:16:17.190Z,30.98
2022-12-13T07:19:04.347Z,32.72
2022-12-13T07:22:09.383Z,30.08
2022-12-13T07:24:55.452Z,27.55
2022-12-13T07:27:41.232Z,28.13
2022-12-13T07:30:27.498Z,28.08
2022-12-13T07:33:14.117Z,33.53
2022-12-13T07:36:12.784Z,33.85
2022-12-13T07:38:58.760Z,36.38
2022-12-13T07:41:44.855Z,30.90
2022-12-13T07:44:30.787Z,33.30
2022-12-13T07:47:16.652Z,33.75
2022-12-13T07:50:02.681Z,32.63
2022-12-13T07:52:50.014Z,34.35
2022-12-13T07:55:36.888Z,35.60
2022-12-13T07:58:23.201Z,43.55
2022-12-13T08:01:10.276Z,44.88
2022-12-13T08:03:56.471Z,42.72
2022-12-13T08:06:42.192Z,36.42
2022-12-13T08:09:28.930Z,34.92
2022-12-13T08:12:15.012Z,35.80
2022-12-13T08:15:13.819Z,31.20
2022-12-13T08:18:01.366Z,29.65
2022-12-13T08:20:47.396Z,31.38
2022-12-13T08:23:34.453Z,35.83
2022-12-13T08:26:20.717Z,36.53
2022-12-13T08:29:06.492Z,37.05
2022-12-13T08:31:52.405Z,35.25
2022-12-13T08:34:39.110Z,31.17
2022-12-13T08:37:25.872Z,35.80
2022-12-13T08:40:12.201Z,37.38
2022-12-13T08:42:59.165Z,31.30
2022-12-13T08:45:45.403Z,26.90
2022-12-13T08:48:32.056Z,30.10
2022-12-13T08:51:24.441Z,30.80
2022-12-13T08:54:12.664Z,36.15
2022-12-13T08:56:58.600Z,28.52
2022-12-13T08:59:44.726Z,32.17
2022-12-13T09:02:30.549Z,28.65
2022-12-13T09:05:32.930Z,40.67
2022-12-13T09:08:23.891Z,30.60
2022-12-13T09:11:20.625Z,34.20
2022-12-13T09:14:14.132Z,37.03
2022-12-13T09:17:02.572Z,34.67
2022-12-13T09:19:49.357Z,35.55
2022-12-13T09:22:35.944Z,29.83
2022-12-13T09:25:24.081Z,29.25
2022-12-13T09:28:10.395Z,36.25
2022-12-13T09:30:57.047Z,35.00
2022-12-13T09:33:44.218Z,36.80
2022-12-13T09:36:30.142Z,37.78
2022-12-13T09:39:16.412Z,40.28
2022-12-13T09:42:10.351Z,27.58
2022-12-13T09:45:05.574Z,27.25
2022-12-13T09:47:53.131Z,36.40
2022-12-13T09:50:58.296Z,33.88
2022-12-13T09:53:47.075Z,36.47
2022-12-13T09:56:33.364Z,33.58
2022-12-13T09:59:30.976Z,37.13
2022-12-13T10:02:46.132Z,32.08
2022-12-13T10:05:40.040Z,34.90
2022-12-13T10:08:36.576Z,33.28
2022-12-13T10:11:23.334Z,31.13
2022-12-13T10:14:26.352Z,22.90
2022-12-13T10:17:16.007Z,24.13
2022-12-13T10:20:03.863Z,23.10
2022-12-13T10:23:14.978Z,25.15
2022-12-13T10:26:03.378Z,27.13
2022-12-13T10:28:51.430Z,28.63
2022-12-13T10:31:46.277Z,27.70
2022-12-13T10:34:35.995Z,31.80
2022-12-13T10:37:48.424Z,28.30
2022-12-13T10:40:48.848Z,27.02
2022-12-13T10:43:36.141Z,25.73
2022-12-13T10:46:25.044Z,22.48
2022-12-13T10:49:37.947Z,23.70
2022-12-13T10:52:43.459Z,17.50
2022-12-13T10:55:34.308Z,25.90
2022-12-13T10:58:20.980Z,23.58
2022-12-13T11:01:16.265Z,23.35
2022-12-13T11:04:25.405Z,17.73
2022-12-13T11:07:31.307Z,18.48
2022-12-13T11:10:26.855Z,21.75
2022-12-13T11:13:25.274Z,17.85
2022-12-13T11:16:17.566Z,24.83
2022-12-13T11:19:06.179Z,20.33
2022-12-13T11:21:53.005Z,23.77
2022-12-13T11:24:40.999Z,26.33
2022-12-13T11:27:49.295Z,29.40
2022-12-13T11:30:50.694Z,27.52
2022-12-13T11:33:57.466Z,22.83
2022-12-13T11:37:11.696Z,22.25
2022-12-13T11:40:36.278Z,26.60
2022-12-13T11:43:25.095Z,26.27
2022-12-13T11:46:20.146Z,24.00
2022-12-13T11:49:18.180Z,18.58
2022-12-13T11:52:25.994Z,17.17
2022-12-13T11:55:18.490Z,24.80
2022-12-13T11:58:08.889Z,22.20
2022-12-13T12:00:59.924Z,24.80
2022-12-13T12:03:59.190Z,30.30
2022-12-13T12:06:54.847Z,39.08
2022-12-13T12:09:46.120Z,34.65
2022-12-13T12:12:34.732Z,29.08
2022-12-13T12:15:26.766Z,46.50
2022-12-13T12:18:16.700Z,30.00
2022-12-13T12:21:14.272Z,38.53
2022-12-13T12:24:06.340Z,33.97
2022-12-13T12:27:11.267Z,31.50
2022-12-13T12:30:09.031Z,42.80
2022-12-13T12:32:55.009Z,38.35
2022-12-13T12:35:50.020Z,34.38
2022-12-13T12:38:54.866Z,35.47
2022-12-13T12:42:15.080Z,32.42
2022-12-13T12:49:07.965Z,35.50
2022-12-13T12:52:04.978Z,38.90
2022-12-13T12:55:18.920Z,34.40
2022-12-13T12:58:13.300Z,32.65
2022-12-13T13:01:36.096Z,31.08
2022-12-13T13:04:35.831Z,36.33
2022-12-13T13:07:40.019Z,35.40
2022-12-13T13:10:27.381Z,33.42
2022-12-13T13:13:33.735Z,39.00
2022-12-13T13:16:39.253Z,40.50
2022-12-13T13:19:31.465Z,38.05
2022-12-13T13:22:33.849Z,37.72
2022-12-13T13:25:40.112Z,29.90
2022-12-13T13:28:40.131Z,32.10
2022-12-13T13:31:26.029Z,33.90
2022-12-13T13:34:25.739Z,29.85
2022-12-13T13:37:24.373Z,29.65
2022-12-13T13:40:13.538Z,31.20
2022-12-13T13:43:17.426Z,34.33
2022-12-13T13:46:03.409Z,41.58
2022-12-13T13:49:07.123Z,35.45
2022-12-13T13:55:30.280Z,47.90
2022-12-13T13:58:21.475Z,51.63
2022-12-13T14:01:38.330Z,50.80
2022-12-13T14:04:45.689Z,43.10
2022-12-13T14:07:53.523Z,49.13
2022-12-13T14:10:52.853Z,48.65
2022-12-13T14:13:56.301Z,41.33
2022-12-13T14:17:03.659Z,40.08
2022-12-13T14:20:15.113Z,49.45
2022-12-13T14:23:22.430Z,50.65
2022-12-13T14:26:25.427Z,46.40
2022-12-13T14:32:02.100Z,50.00
2022-12-13T14:34:49.775Z,49.50
2022-12-13T14:37:37.874Z,39.53
2022-12-13T14:40:36.796Z,42.72
2022-12-13T14:43:24.565Z,43.85
2022-12-13T14:46:14.783Z,40.13
2022-12-13T14:49:01.676Z,47.50
2022-12-13T14:52:00.261Z,44.22
2022-12-13T14:54:51.569Z,35.58
2022-12-13T14:57:52.091Z,40.72
2022-12-13T15:00:40.805Z,45.95
2022-12-13T15:03:28.263Z,35.05
2022-12-13T15:06:14.647Z,37.60
2022-12-13T15:09:01.835Z,61.42
2022-12-13T15:11:47.807Z,52.50
2022-12-13T15:14:34.723Z,43.33
2022-12-13T15:17:37.045Z,52.42
2022-12-13T15:20:39.174Z,63.45
2022-12-13T15:23:29.848Z,63.45
2022-12-13T15:26:28.500Z,66.05
2022-12-13T15:29:18.949Z,72.82
2022-12-13T15:32:05.848Z,69.35
2022-12-13T15:34:52.020Z,78.47
2022-12-13T15:37:37.968Z,72.50
2022-12-13T15:40:23.905Z,78.00
2022-12-13T15:43:17.259Z,71.45
2022-12-13T15:46:04.554Z,70.18
2022-12-13T15:48:50.560Z,76.80
2022-12-13T15:51:54.265Z,77.55
2022-12-13T15:54:40.065Z,71.30
2022-12-13T15:57:31.344Z,69.20
2022-12-13T16:00:17.350Z,69.03
2022-12-13T16:03:09.707Z,76.78
2022-12-13T16:08:45.908Z,81.75
2022-12-13T16:12:05.172Z,72.28
2022-12-13T16:14:51.641Z,75.35
2022-12-13T16:17:42.114Z,81.13
2022-12-13T16:20:30.520Z,78.45
2022-12-13T16:23:26.657Z,83.47
2022-12-13T16:26:14.216Z,79.38
2022-12-13T16:29:00.424Z,76.28
2022-12-13T16:31:46.616Z,77.18
2022-12-13T16:34:32.726Z,82.95
2022-12-13T16:37:26.002Z,82.10
2022-12-13T16:40:17.651Z,77.75
2022-12-13T16:43:06.314Z,93.47
2022-12-13T16:45:53.659Z,80.85
2022-12-13T16:48:39.394Z,80.72
2022-12-13T16:51:25.131Z,84.13
2022-12-13T16:54:11.392Z,84.57
2022-12-13T16:56:57.521Z,100.85
2022-12-13T16:59:43.489Z,92.35
2022-12-13T17:02:29.564Z,99.32
2022-12-13T17:05:15.673Z,92.30
2022-12-13T17:08:01.995Z,98.00
2022-12-13T17:10:48.193Z,93.45
2022-12-13T17:13:44.971Z,92.45
2022-12-13T17:16:31.853Z,90.68
2022-12-13T17:19:18.117Z,77.68
2022-12-13T17:22:04.183Z,87.57
2022-12-13T17:24:49.953Z,83.35
2022-12-13T17:27:36.398Z,83.50
2022-12-13T17:30:24.228Z,95.95
2022-12-13T17:33:12.249Z,77.82
2022-12-13T17:36:01.648Z,81.38
2022-12-13T17:38:48.308Z,80.55
2022-12-13T17:41:34.284Z,75.68
2022-12-13T17:44:20.808Z,78.80
2022-12-13T17:47:07.191Z,75.97
2022-12-13T17:49:53.500Z,78.55
2022-12-13T17:52:39.944Z,72.82
2022-12-13T17:55:25.819Z,69.88
2022-12-13T17:58:14.286Z,70.72
2022-12-13T18:01:13.776Z,72.43
2022-12-13T18:04:00.124Z,73.07
2022-12-13T18:06:46.452Z,78.03
2022-12-13T18:09:32.535Z,74.63
2022-12-13T18:12:19.473Z,76.53
2022-12-13T18:15:06.294Z,83.35
2022-12-13T18:21:06.733Z,73.45
2022-12-13T18:23:55.069Z,81.03
2022-12-13T18:26:42.096Z,75.78
2022-12-13T18:29:28.346Z,78.65
2022-12-13T18:32:14.264Z,75.95
2022-12-13T18:35:00.156Z,64.15
2022-12-13T18:37:46.193Z,70.72
2022-12-13T18:40:32.369Z,59.13
2022-12-13T18:43:18.643Z,61.55
2022-12-13T18:46:05.346Z,66.97
2022-12-13T18:48:51.694Z,67.38
2022-12-13T18:51:38.087Z,68.53
2022-12-13T18:54:24.301Z,72.05
2022-12-13T18:57:10.281Z,56.50
2022-12-13T18:59:56.182Z,67.75
2022-12-13T19:02:42.108Z,73.90
2022-12-13T19:05:28.178Z,68.22
2022-12-13T19:08:14.229Z,70.60
2022-12-13T19:11:01.783Z,82.20
2022-12-13T19:13:48.545Z,68.78
2022-12-13T19:16:34.500Z,119.75
2022-12-13T19:19:20.511Z,102.90
2022-12-13T19:22:06.830Z,73.53
2022-12-13T19:24:52.716Z,75.78
2022-12-13T19:27:39.258Z,67.05
2022-12-13T19:30:26.086Z,65.95
2022-12-13T19:33:13.147Z,63.28
2022-12-13T19:35:58.895Z,70.97
2022-12-13T19:38:45.146Z,71.57
2022-12-13T19:41:32.405Z,77.25
2022-12-13T19:44:18.728Z,64.88
2022-12-13T19:47:05.056Z,60.88
2022-12-13T19:49:51.270Z,64.60
2022-12-13T19:52:38.473Z,71.20
2022-12-13T19:55:24.588Z,68.30
2022-12-13T19:58:11.027Z,58.90
2022-12-13T20:01:04.479Z,61.72
2022-12-13T20:03:50.566Z,65.55
2022-12-13T20:06:36.563Z,63.03
2022-12-13T20:09:22.276Z,64.10
2022-12-13T20:12:08.604Z,74.25
2022-12-13T20:14:54.562Z,80.38
2022-12-13T20:17:40.351Z,78.43
2022-12-13T20:20:40.857Z,77.22
2022-12-13T20:23:34.829Z,83.57
2022-12-13T20:26:23.375Z,96.40
2022-12-13T20:29:09.531Z,86.45
2022-12-13T20:31:56.696Z,93.53
2022-12-13T20:34:42.919Z,89.80
2022-12-13T20:37:28.965Z,90.18
2022-12-13T20:40:15.146Z,97.28
2022-12-13T20:43:01.777Z,93.07
2022-12-13T20:45:47.607Z,74.32
2022-12-13T20:48:38.767Z,69.55
2022-12-13T20:51:26.828Z,69.72
2022-12-13T20:54:12.722Z,66.93
2022-12-13T20:56:58.579Z,63.42
2022-12-13T20:59:44.620Z,55.20
2022-12-13T21:02:30.922Z,54.58
2022-12-13T21:05:20.685Z,57.28
2022-12-13T21:08:25.263Z,64.80
2022-12-13T21:11:26.784Z,58.97
2022-12-13T21:14:25.510Z,66.38
2022-12-13T21:17:12.104Z,68.00
2022-12-13T21:19:57.979Z,59.47
2022-12-13T21:22:43.944Z,59.25
2022-12-13T21:25:29.904Z,58.90
2022-12-13T21:28:15.644Z,60.33
2022-12-13T21:31:03.637Z,58.28
2022-12-13T21:33:55.015Z,65.68
2022-12-13T21:36:43.773Z,67.72
2022-12-13T21:39:29.791Z,68.82
2022-12-13T21:42:16.011Z,68.63
2022-12-13T21:45:02.445Z,69.18
2022-12-13T21:47:49.030Z,74.05
2022-12-13T21:50:35.152Z,74.18
2022-12-13T21:53:21.434Z,71.65
2022-12-13T21:56:31.349Z,72.65
2022-12-13T21:59:22.634Z,69.50
2022-12-13T22:02:16.361Z,73.85
2022-12-13T22:05:02.486Z,82.57
2022-12-13T22:07:48.499Z,73.13
2022-12-13T22:10:34.626Z,80.15
2022-12-13T22:13:20.560Z,74.32
2022-12-13T22:16:07.080Z,75.25
2022-12-13T22:18:56.908Z,69.10
2022-12-13T22:21:43.309Z,79.40
2022-12-13T22:24:29.497Z,80.57
2022-12-13T22:27:19.588Z,82.15
2022-12-13T22:30:06.512Z,83.25
2022-12-13T22:32:52.972Z,83.68
2022-12-13T22:35:39.144Z,92.50
2022-12-13T22:38:25.444Z,91.45
2022-12-13T22:41:14.429Z,101.53
2022-12-13T22:44:00.458Z,102.75
2022-12-13T22:46:46.838Z,99.40
2022-12-13T22:49:32.769Z,107.45
2022-12-13T22:52:18.524Z,102.68
2022-12-13T22:55:05.147Z,102.38
2022-12-13T22:57:50.907Z,96.45
2022-12-13T23:00:37.096Z,93.35
2022-12-13T23:03:23.913Z,92.05
2022-12-13T23:06:13.998Z,96.78
2022-12-13T23:09:02.272Z,106.70
2022-12-13T23:12:06.560Z,123.63
2022-12-13T23:14:52.900Z,119.25
2022-12-13T23:17:38.634Z,116.75
2022-12-13T23:20:24.576Z,99.93
2022-12-13T23:23:10.442Z,100.95
2022-12-13T23:25:56.322Z,100.45
2022-12-13T23:28:43.501Z,92.22
2022-12-13T23:31:31.191Z,87.13
2022-12-13T23:34:17.277Z,87.75
2022-12-13T23:37:03.436Z,88.82
2022-12-13T23:39:49.323Z,102.45
2022-12-13T23:42:35.109Z,97.95
2022-12-13T23:45:21.068Z,108.45
2022-12-13T23:48:07.180Z,110.00
2022-12-13T23:50:53.322Z,103.30
2022-12-13T23:53:39.852Z,104.63
2022-12-13T23:56:26.470Z,97.78
2022-12-13T23:59:12.553Z,94.35
